MV Finola — OULQ2 — position and weather

sailwx.info

Track history (hours):
 
Tides and Currents Weather Stations Pressure Air Temp Water Temp Dewpoint Dewpoint Depression Visibility Wind Speed Wind Dir Waves Ship Positions

MV Finola

Last reported at 2014-Sep-10 03:27 UTC. Time now 2014-Sep-18 11:43 UTC.
Position S 10°24' E 129°37'.
Warning: this ship's position is 8 days out of date.

Length 86 m; draft 3.5 m.

Type: Cargo ship. MMSI: 219483000.

Date/timePositionNaut miles runAvg speedWind from/ knotsBaromVisibWave heightAir tempDewpointWater temp
2014-Sep-10 03:27S 10°24' E 129°37'2712.0
2014-Sep-10 01:09S 10°50' E 129°44'813.1
2014-Sep-10 00:32S 10°58' E 129°46'1313.3
2014-Sep-09 23:33S 11°11' E 129°49'1313.4
2014-Sep-09 22:33S 11°24' E 129°52'1313.0
2014-Sep-09 21:34S 11°37' E 129°55'1211.8
2014-Sep-09 20:34S 11°48' E 129°58'9 9.3
2014-Sep-09 19:34S 11°56' E 130°03'7 6.6
2014-Sep-09 18:33S 11°59' E 130°10'5 5.0
2014-Sep-09 17:33S 12°02' E 130°14'5 5.5
2014-Sep-09 16:33S 12°05' E 130°18'10 9.8
2014-Sep-09 15:33S 12°10' E 130°27'1212.1
2014-Sep-09 14:33S 12°17' E 130°37'1212.4
2014-Sep-09 13:33S 12°25' E 130°47'8 7.5
2014-Sep-09 12:32S 12°29' E 130°53'0 0.0
2014-Sep-09 11:32S 12°29' E 130°53'0 0.0
2014-Sep-09 10:32S 12°29' E 130°53'0 0.0
2014-Sep-09 09:20S 12°29' E 130°53'0 0.0
2014-Sep-09 08:32S 12°29' E 130°53'0 0.0
2014-Sep-09 07:32S 12°29' E 130°53'0 0.0
2014-Sep-09 06:32S 12°29' E 130°53'0 0.0
2014-Sep-09 05:23S 12°29' E 130°53'0 0.0
2014-Sep-09 04:23S 12°29' E 130°53'0 0.0
2014-Sep-09 03:26S 12°29' E 130°53'0 0.0
2014-Sep-09 02:26S 12°29' E 130°53'0 0.0
2014-Sep-09 01:26S 12°29' E 130°53'0 0.0
2014-Sep-09 00:26S 12°29' E 130°53'0 0.0
2014-Sep-08 23:26S 12°29' E 130°53'0 0.0
2014-Sep-08 22:29S 12°29' E 130°53'0 0.0
2014-Sep-08 21:29S 12°29' E 130°53'0 0.0
2014-Sep-08 20:33S 12°29' E 130°53'8 7.9
2014-Sep-08 19:34S 12°25' E 130°46'1 0.9
2014-Sep-08 18:31S 12°24' E 130°46'0 0.0
2014-Sep-08 17:31S 12°24' E 130°46'0 0.0
2014-Sep-08 16:31S 12°24' E 130°46'0 0.0
2014-Sep-08 15:31S 12°24' E 130°46'0 0.0
2014-Sep-08 14:22S 12°24' E 130°46'0 0.1
2014-Sep-08 13:22S 12°24' E 130°46'0 0.0
2014-Sep-08 12:25S 12°24' E 130°46'0 0.0
2014-Sep-08 11:25S 12°24' E 130°46'0 0.0
2014-Sep-08 10:25S 12°24' E 130°46'0 0.0
2014-Sep-08 09:25S 12°24' E 130°46'0 0.1
2014-Sep-08 08:25S 12°24' E 130°46'0 0.0
2014-Sep-08 07:28S 12°24' E 130°46'2 2.0
2014-Sep-08 06:33S 12°23' E 130°45'1413.6
2014-Sep-08 05:33S 12°15' E 130°34'1313.5
2014-Sep-08 04:33S 12°07' E 130°22'1313.3
2014-Sep-08 03:33S 12°00' E 130°11'  
Track history (hours):
 
Tides and Currents Weather Stations Pressure Air Temp Water Temp Dewpoint Dewpoint Depression Visibility Wind Speed Wind Dir Waves Ship Positions

MV Finola

Last reported at 2014-Sep-10 03:27 UTC. Time now 2014-Sep-18 11:43 UTC.
Position S 10°24' E 129°37'.
Warning: this ship's position is 8 days out of date.

Length 86 m; draft 3.5 m.

Type: Cargo ship. MMSI: 219483000.

Date/timePositionNaut miles runAvg speedWind from/ knotsBaromVisibWave heightAir tempDewpointWater temp
2014-Sep-10 03:27S 10°24' E 129°37'2712.0
2014-Sep-10 01:09S 10°50' E 129°44'813.1
2014-Sep-10 00:32S 10°58' E 129°46'1313.3
2014-Sep-09 23:33S 11°11' E 129°49'1313.4
2014-Sep-09 22:33S 11°24' E 129°52'1313.0
2014-Sep-09 21:34S 11°37' E 129°55'1211.8
2014-Sep-09 20:34S 11°48' E 129°58'9 9.3
2014-Sep-09 19:34S 11°56' E 130°03'7 6.6
2014-Sep-09 18:33S 11°59' E 130°10'5 5.0
2014-Sep-09 17:33S 12°02' E 130°14'5 5.5
2014-Sep-09 16:33S 12°05' E 130°18'10 9.8
2014-Sep-09 15:33S 12°10' E 130°27'1212.1
2014-Sep-09 14:33S 12°17' E 130°37'1212.4
2014-Sep-09 13:33S 12°25' E 130°47'8 7.5
2014-Sep-09 12:32S 12°29' E 130°53'0 0.0
2014-Sep-09 11:32S 12°29' E 130°53'0 0.0
2014-Sep-09 10:32S 12°29' E 130°53'0 0.0
2014-Sep-09 09:20S 12°29' E 130°53'0 0.0
2014-Sep-09 08:32S 12°29' E 130°53'0 0.0
2014-Sep-09 07:32S 12°29' E 130°53'0 0.0
2014-Sep-09 06:32S 12°29' E 130°53'0 0.0
2014-Sep-09 05:23S 12°29' E 130°53'0 0.0
2014-Sep-09 04:23S 12°29' E 130°53'0 0.0
2014-Sep-09 03:26S 12°29' E 130°53'0 0.0
2014-Sep-09 02:26S 12°29' E 130°53'0 0.0
2014-Sep-09 01:26S 12°29' E 130°53'0 0.0
2014-Sep-09 00:26S 12°29' E 130°53'0 0.0
2014-Sep-08 23:26S 12°29' E 130°53'0 0.0
2014-Sep-08 22:29S 12°29' E 130°53'0 0.0
2014-Sep-08 21:29S 12°29' E 130°53'0 0.0
2014-Sep-08 20:33S 12°29' E 130°53'8 7.9
2014-Sep-08 19:34S 12°25' E 130°46'1 0.9
2014-Sep-08 18:31S 12°24' E 130°46'0 0.0
2014-Sep-08 17:31S 12°24' E 130°46'0 0.0
2014-Sep-08 16:31S 12°24' E 130°46'0 0.0
2014-Sep-08 15:31S 12°24' E 130°46'0 0.0
2014-Sep-08 14:22S 12°24' E 130°46'0 0.1
2014-Sep-08 13:22S 12°24' E 130°46'0 0.0
2014-Sep-08 12:25S 12°24' E 130°46'0 0.0
2014-Sep-08 11:25S 12°24' E 130°46'0 0.0
2014-Sep-08 10:25S 12°24' E 130°46'0 0.0
2014-Sep-08 09:25S 12°24' E 130°46'0 0.1
2014-Sep-08 08:25S 12°24' E 130°46'0 0.0
2014-Sep-08 07:28S 12°24' E 130°46'2 2.0
2014-Sep-08 06:33S 12°23' E 130°45'1413.6
2014-Sep-08 05:33S 12°15' E 130°34'1313.5
2014-Sep-08 04:33S 12°07' E 130°22'1313.3
2014-Sep-08 03:33S 12°00' E 130°11'  

Dump ship's entire track history